sensor_id;sensor_type;location;lat;lon;timestamp;temperature;humidity
45807;DHT22;31507;51.494;7.518;2023-02-15T00:02:12;3.70;99.90
45807;DHT22;31507;51.494;7.518;2023-02-15T00:04:37;3.80;99.90
45807;DHT22;31507;51.494;7.518;2023-02-15T00:07:15;3.90;99.90
45807;DHT22;31507;51.494;7.518;2023-02-15T00:09:41;3.70;99.90
45807;DHT22;31507;51.494;7.518;2023-02-15T00:12:07;3.70;99.90
45807;DHT22;31507;51.494;7.518;2023-02-15T00:14:33;3.60;99.90
45807;DHT22;31507;51.494;7.518;2023-02-15T00:16:59;3.50;99.90
45807;DHT22;31507;51.494;7.518;2023-02-15T00:19:25;3.50;99.90
45807;DHT22;31507;51.494;7.518;2023-02-15T00:21:50;3.40;99.90
45807;DHT22;31507;51.494;7.518;2023-02-15T00:24:16;3.30;99.90
45807;DHT22;31507;51.494;7.518;2023-02-15T00:26:42;3.20;99.90
45807;DHT22;31507;51.494;7.518;2023-02-15T00:29:09;3.10;99.90
45807;DHT22;31507;51.494;7.518;2023-02-15T00:31:35;3.00;99.90
45807;DHT22;31507;51.494;7.518;2023-02-15T00:34:09;2.90;99.90
45807;DHT22;31507;51.494;7.518;2023-02-15T00:36:35;3.00;99.90
45807;DHT22;31507;51.494;7.518;2023-02-15T00:39:00;2.90;99.90
45807;DHT22;31507;51.494;7.518;2023-02-15T00:41:26;2.80;99.90
45807;DHT22;31507;51.494;7.518;2023-02-15T00:43:51;2.90;99.90
45807;DHT22;31507;51.494;7.518;2023-02-15T00:46:17;3.10;99.90
45807;DHT22;31507;51.494;7.518;2023-02-15T00:48:42;3.30;99.90
45807;DHT22;31507;51.494;7.518;2023-02-15T00:51:08;3.60;99.90
45807;DHT22;31507;51.494;7.518;2023-02-15T00:53:33;3.70;99.90
45807;DHT22;31507;51.494;7.518;2023-02-15T00:55:59;3.80;99.90
45807;DHT22;31507;51.494;7.518;2023-02-15T00:58:24;3.70;99.90
45807;DHT22;31507;51.494;7.518;2023-02-15T01:00:50;3.80;99.90
45807;DHT22;31507;51.494;7.518;2023-02-15T01:03:16;3.80;99.90
45807;DHT22;31507;51.494;7.518;2023-02-15T01:05:42;3.70;99.90
45807;DHT22;31507;51.494;7.518;2023-02-15T01:08:08;3.60;99.90
45807;DHT22;31507;51.494;7.518;2023-02-15T01:10:34;3.60;99.90
45807;DHT22;31507;51.494;7.518;2023-02-15T01:13:00;3.50;99.90
45807;DHT22;31507;51.494;7.518;2023-02-15T01:15:26;3.40;99.90
45807;DHT22;31507;51.494;7.518;2023-02-15T01:17:51;3.40;99.90
45807;DHT22;31507;51.494;7.518;2023-02-15T01:20:19;3.40;99.90
45807;DHT22;31507;51.494;7.518;2023-02-15T01:22:44;3.30;99.90
45807;DHT22;31507;51.494;7.518;2023-02-15T01:25:12;3.20;99.90
45807;DHT22;31507;51.494;7.518;2023-02-15T01:27:37;3.10;99.90
45807;DHT22;31507;51.494;7.518;2023-02-15T01:30:03;3.20;99.90
45807;DHT22;31507;51.494;7.518;2023-02-15T01:32:30;3.10;99.90
45807;DHT22;31507;51.494;7.518;2023-02-15T01:43:56;2.80;99.90
45807;DHT22;31507;51.494;7.518;2023-02-15T01:46:23;2.90;99.90
45807;DHT22;31507;51.494;7.518;2023-02-15T01:49:09;2.70;99.90
45807;DHT22;31507;51.494;7.518;2023-02-15T01:51:36;2.70;99.90
45807;DHT22;31507;51.494;7.518;2023-02-15T01:54:04;2.70;99.90
45807;DHT22;31507;51.494;7.518;2023-02-15T01:56:31;2.60;99.90
45807;DHT22;31507;51.494;7.518;2023-02-15T01:58:59;2.40;99.90
45807;DHT22;31507;51.494;7.518;2023-02-15T02:01:27;2.40;99.90
45807;DHT22;31507;51.494;7.518;2023-02-15T02:03:59;2.50;99.90
45807;DHT22;31507;51.494;7.518;2023-02-15T02:06:27;2.50;99.90
45807;DHT22;31507;51.494;7.518;2023-02-15T02:11:56;2.60;99.90
45807;DHT22;31507;51.494;7.518;2023-02-15T02:14:22;2.70;99.90
45807;DHT22;31507;51.494;7.518;2023-02-15T02:16:51;2.60;99.90
45807;DHT22;31507;51.494;7.518;2023-02-15T02:27:32;2.60;99.90
45807;DHT22;31507;51.494;7.518;2023-02-15T02:35:15;2.70;99.90
45807;DHT22;31507;51.494;7.518;2023-02-15T02:40:35;2.50;99.90
45807;DHT22;31507;51.494;7.518;2023-02-15T02:43:06;2.40;99.90
45807;DHT22;31507;51.494;7.518;2023-02-15T02:45:36;2.40;99.90
45807;DHT22;31507;51.494;7.518;2023-02-15T02:48:08;2.50;99.90
45807;DHT22;31507;51.494;7.518;2023-02-15T02:50:38;2.70;99.90
45807;DHT22;31507;51.494;7.518;2023-02-15T02:53:04;2.80;99.90
45807;DHT22;31507;51.494;7.518;2023-02-15T02:58:03;3.00;99.90
45807;DHT22;31507;51.494;7.518;2023-02-15T03:00:32;3.20;99.90
45807;DHT22;31507;51.494;7.518;2023-02-15T03:03:02;3.20;99.90
45807;DHT22;31507;51.494;7.518;2023-02-15T03:05:30;3.30;99.90
45807;DHT22;31507;51.494;7.518;2023-02-15T03:07:57;3.30;99.90
45807;DHT22;31507;51.494;7.518;2023-02-15T03:10:23;3.20;99.90
45807;DHT22;31507;51.494;7.518;2023-02-15T03:12:49;3.20;99.90
45807;DHT22;31507;51.494;7.518;2023-02-15T03:17:42;3.20;99.90
45807;DHT22;31507;51.494;7.518;2023-02-15T03:20:09;3.20;99.90
45807;DHT22;31507;51.494;7.518;2023-02-15T03:22:37;3.20;99.90
45807;DHT22;31507;51.494;7.518;2023-02-15T03:25:23;3.20;99.90
45807;DHT22;31507;51.494;7.518;2023-02-15T03:28:00;3.20;99.90
45807;DHT22;31507;51.494;7.518;2023-02-15T03:30:27;3.20;99.90
45807;DHT22;31507;51.494;7.518;2023-02-15T03:32:53;3.20;99.90
45807;DHT22;31507;51.494;7.518;2023-02-15T03:35:20;3.10;99.90
45807;DHT22;31507;51.494;7.518;2023-02-15T03:37:48;3.10;99.90
45807;DHT22;31507;51.494;7.518;2023-02-15T03:43:16;2.90;99.90
45807;DHT22;31507;51.494;7.518;2023-02-15T03:45:44;2.80;99.90
45807;DHT22;31507;51.494;7.518;2023-02-15T03:48:21;2.80;99.90
45807;DHT22;31507;51.494;7.518;2023-02-15T03:50:48;2.70;99.90
45807;DHT22;31507;51.494;7.518;2023-02-15T03:53:32;2.70;99.90
45807;DHT22;31507;51.494;7.518;2023-02-15T03:55:57;2.70;99.90
45807;DHT22;31507;51.494;7.518;2023-02-15T03:58:23;2.90;99.90
45807;DHT22;31507;51.494;7.518;2023-02-15T04:01:51;2.90;99.90
45807;DHT22;31507;51.494;7.518;2023-02-15T04:04:32;2.90;99.90
45807;DHT22;31507;51.494;7.518;2023-02-15T04:06:58;2.80;99.90
45807;DHT22;31507;51.494;7.518;2023-02-15T04:09:24;2.80;99.90
45807;DHT22;31507;51.494;7.518;2023-02-15T04:12:08;2.80;99.90
45807;DHT22;31507;51.494;7.518;2023-02-15T04:14:33;2.80;99.90
45807;DHT22;31507;51.494;7.518;2023-02-15T04:17:18;2.80;99.90
45807;DHT22;31507;51.494;7.518;2023-02-15T04:19:43;2.90;99.90
45807;DHT22;31507;51.494;7.518;2023-02-15T04:22:27;2.90;99.90
45807;DHT22;31507;51.494;7.518;2023-02-15T04:25:11;2.90;99.90
45807;DHT22;31507;51.494;7.518;2023-02-15T04:27:38;2.90;99.90
45807;DHT22;31507;51.494;7.518;2023-02-15T04:30:04;2.80;99.90
45807;DHT22;31507;51.494;7.518;2023-02-15T04:32:30;2.70;99.90
45807;DHT22;31507;51.494;7.518;2023-02-15T04:34:55;2.60;99.90
45807;DHT22;31507;51.494;7.518;2023-02-15T04:37:21;2.50;99.90
45807;DHT22;31507;51.494;7.518;2023-02-15T04:39:46;2.40;99.90
45807;DHT22;31507;51.494;7.518;2023-02-15T04:42:12;2.30;99.90
45807;DHT22;31507;51.494;7.518;2023-02-15T04:44:37;2.30;99.90
45807;DHT22;31507;51.494;7.518;2023-02-15T04:47:03;2.30;99.90
45807;DHT22;31507;51.494;7.518;2023-02-15T04:49:28;2.30;99.90
45807;DHT22;31507;51.494;7.518;2023-02-15T04:51:54;2.30;99.90
45807;DHT22;31507;51.494;7.518;2023-02-15T04:54:19;2.30;99.90
45807;DHT22;31507;51.494;7.518;2023-02-15T04:56:45;2.40;99.90
45807;DHT22;31507;51.494;7.518;2023-02-15T04:59:10;2.40;99.90
45807;DHT22;31507;51.494;7.518;2023-02-15T05:01:36;2.50;99.90
45807;DHT22;31507;51.494;7.518;2023-02-15T05:04:02;2.60;99.90
45807;DHT22;31507;51.494;7.518;2023-02-15T05:06:28;2.60;99.90
45807;DHT22;31507;51.494;7.518;2023-02-15T05:08:53;2.50;99.90
45807;DHT22;31507;51.494;7.518;2023-02-15T05:11:19;2.40;99.90
45807;DHT22;31507;51.494;7.518;2023-02-15T05:13:44;2.30;99.90
45807;DHT22;31507;51.494;7.518;2023-02-15T05:16:10;2.20;99.90
45807;DHT22;31507;51.494;7.518;2023-02-15T05:18:35;2.10;99.90
45807;DHT22;31507;51.494;7.518;2023-02-15T05:21:01;2.00;99.90
45807;DHT22;31507;51.494;7.518;2023-02-15T05:23:26;1.90;99.90
45807;DHT22;31507;51.494;7.518;2023-02-15T05:25:52;1.80;99.90
45807;DHT22;31507;51.494;7.518;2023-02-15T05:28:36;1.70;99.90
45807;DHT22;31507;51.494;7.518;2023-02-15T05:31:12;1.70;99.90
45807;DHT22;31507;51.494;7.518;2023-02-15T05:33:38;1.60;99.90
45807;DHT22;31507;51.494;7.518;2023-02-15T05:36:05;1.70;99.90
45807;DHT22;31507;51.494;7.518;2023-02-15T05:38:30;1.70;99.90
45807;DHT22;31507;51.494;7.518;2023-02-15T05:40:56;1.60;99.90
45807;DHT22;31507;51.494;7.518;2023-02-15T05:43:22;1.50;99.90
45807;DHT22;31507;51.494;7.518;2023-02-15T05:45:48;1.50;99.90
45807;DHT22;31507;51.494;7.518;2023-02-15T05:48:14;1.50;99.90
45807;DHT22;31507;51.494;7.518;2023-02-15T05:50:40;1.50;99.90
45807;DHT22;31507;51.494;7.518;2023-02-15T05:53:05;1.60;99.90
45807;DHT22;31507;51.494;7.518;2023-02-15T05:55:31;1.50;99.90
45807;DHT22;31507;51.494;7.518;2023-02-15T05:57:57;1.50;99.90
45807;DHT22;31507;51.494;7.518;2023-02-15T06:00:22;1.50;99.90
45807;DHT22;31507;51.494;7.518;2023-02-15T06:02:48;1.50;99.90
45807;DHT22;31507;51.494;7.518;2023-02-15T06:05:14;1.60;99.90
45807;DHT22;31507;51.494;7.518;2023-02-15T06:07:42;1.60;99.90
45807;DHT22;31507;51.494;7.518;2023-02-15T06:10:08;1.60;99.90
45807;DHT22;31507;51.494;7.518;2023-02-15T06:12:33;1.70;99.90
45807;DHT22;31507;51.494;7.518;2023-02-15T06:14:59;1.70;99.90
45807;DHT22;31507;51.494;7.518;2023-02-15T06:17:24;1.70;99.90
45807;DHT22;31507;51.494;7.518;2023-02-15T06:19:50;1.70;99.90
45807;DHT22;31507;51.494;7.518;2023-02-15T06:22:15;1.70;99.90
45807;DHT22;31507;51.494;7.518;2023-02-15T06:24:41;1.60;99.90
45807;DHT22;31507;51.494;7.518;2023-02-15T06:27:08;1.50;99.90
45807;DHT22;31507;51.494;7.518;2023-02-15T06:29:34;1.50;99.90
45807;DHT22;31507;51.494;7.518;2023-02-15T06:31:59;1.60;99.90
45807;DHT22;31507;51.494;7.518;2023-02-15T06:34:25;1.80;99.90
45807;DHT22;31507;51.494;7.518;2023-02-15T06:36:50;1.90;99.90
45807;DHT22;31507;51.494;7.518;2023-02-15T06:39:16;2.00;99.90
45807;DHT22;31507;51.494;7.518;2023-02-15T06:41:41;2.10;99.90
45807;DHT22;31507;51.494;7.518;2023-02-15T06:44:07;2.10;99.90
45807;DHT22;31507;51.494;7.518;2023-02-15T06:46:32;2.00;99.90
45807;DHT22;31507;51.494;7.518;2023-02-15T06:48:58;2.10;99.90
45807;DHT22;31507;51.494;7.518;2023-02-15T06:51:23;2.20;99.90
45807;DHT22;31507;51.494;7.518;2023-02-15T06:53:49;2.20;99.90
45807;DHT22;31507;51.494;7.518;2023-02-15T06:56:14;2.30;99.90
45807;DHT22;31507;51.494;7.518;2023-02-15T06:58:40;2.30;99.90
45807;DHT22;31507;51.494;7.518;2023-02-15T07:01:06;2.40;99.90
45807;DHT22;31507;51.494;7.518;2023-02-15T07:03:32;2.50;99.90
45807;DHT22;31507;51.494;7.518;2023-02-15T07:05:58;2.60;99.90
45807;DHT22;31507;51.494;7.518;2023-02-15T07:08:24;2.70;99.90
45807;DHT22;31507;51.494;7.518;2023-02-15T07:10:50;2.70;99.90
45807;DHT22;31507;51.494;7.518;2023-02-15T07:13:16;2.80;99.90
45807;DHT22;31507;51.494;7.518;2023-02-15T07:15:41;2.90;99.90
45807;DHT22;31507;51.494;7.518;2023-02-15T07:18:07;2.90;99.90
45807;DHT22;31507;51.494;7.518;2023-02-15T07:20:32;2.90;99.90
45807;DHT22;31507;51.494;7.518;2023-02-15T07:23:01;3.00;99.90
45807;DHT22;31507;51.494;7.518;2023-02-15T07:25:27;3.10;99.90
45807;DHT22;31507;51.494;7.518;2023-02-15T07:27:59;3.10;99.90
45807;DHT22;31507;51.494;7.518;2023-02-15T07:30:25;3.10;99.90
45807;DHT22;31507;51.494;7.518;2023-02-15T07:32:54;3.20;99.90
45807;DHT22;31507;51.494;7.518;2023-02-15T07:35:38;3.20;99.90
45807;DHT22;31507;51.494;7.518;2023-02-15T07:38:11;3.30;99.90
45807;DHT22;31507;51.494;7.518;2023-02-15T07:40:36;3.30;99.90
45807;DHT22;31507;51.494;7.518;2023-02-15T07:43:02;3.40;99.90
45807;DHT22;31507;51.494;7.518;2023-02-15T07:45:27;3.40;99.90
45807;DHT22;31507;51.494;7.518;2023-02-15T07:47:53;3.50;99.90
45807;DHT22;31507;51.494;7.518;2023-02-15T07:50:18;3.50;99.90
45807;DHT22;31507;51.494;7.518;2023-02-15T07:52:44;3.60;99.90
45807;DHT22;31507;51.494;7.518;2023-02-15T07:55:10;3.70;99.90
45807;DHT22;31507;51.494;7.518;2023-02-15T07:57:41;3.80;99.90
45807;DHT22;31507;51.494;7.518;2023-02-15T08:00:06;3.90;99.90
45807;DHT22;31507;51.494;7.518;2023-02-15T08:02:32;3.90;99.90
45807;DHT22;31507;51.494;7.518;2023-02-15T08:04:59;4.10;99.90
45807;DHT22;31507;51.494;7.518;2023-02-15T08:07:24;4.10;99.90
45807;DHT22;31507;51.494;7.518;2023-02-15T08:09:50;4.20;99.90
45807;DHT22;31507;51.494;7.518;2023-02-15T08:12:15;4.30;99.90
45807;DHT22;31507;51.494;7.518;2023-02-15T08:14:41;4.40;99.90
45807;DHT22;31507;51.494;7.518;2023-02-15T08:17:06;4.50;99.90
45807;DHT22;31507;51.494;7.518;2023-02-15T08:19:32;4.60;99.90
45807;DHT22;31507;51.494;7.518;2023-02-15T08:22:03;4.70;99.90
45807;DHT22;31507;51.494;7.518;2023-02-15T08:24:30;4.80;99.90
45807;DHT22;31507;51.494;7.518;2023-02-15T08:26:55;5.00;99.90
45807;DHT22;31507;51.494;7.518;2023-02-15T08:29:22;5.30;99.90
45807;DHT22;31507;51.494;7.518;2023-02-15T08:31:49;5.50;99.90
45807;DHT22;31507;51.494;7.518;2023-02-15T08:34:16;5.70;99.90
45807;DHT22;31507;51.494;7.518;2023-02-15T08:36:42;6.00;99.90
45807;DHT22;31507;51.494;7.518;2023-02-15T08:39:07;6.30;99.90
45807;DHT22;31507;51.494;7.518;2023-02-15T08:41:34;6.60;99.90
45807;DHT22;31507;51.494;7.518;2023-02-15T08:44:00;6.90;99.90
45807;DHT22;31507;51.494;7.518;2023-02-15T08:46:27;7.20;99.90
45807;DHT22;31507;51.494;7.518;2023-02-15T08:48:53;7.50;98.80
45807;DHT22;31507;51.494;7.518;2023-02-15T08:51:22;7.80;97.80
45807;DHT22;31507;51.494;7.518;2023-02-15T08:53:49;8.00;98.10
45807;DHT22;31507;51.494;7.518;2023-02-15T08:56:15;8.20;96.40
45807;DHT22;31507;51.494;7.518;2023-02-15T08:58:41;8.30;96.40
45807;DHT22;31507;51.494;7.518;2023-02-15T09:01:10;8.40;95.70
45807;DHT22;31507;51.494;7.518;2023-02-15T09:03:36;8.70;95.40
45807;DHT22;31507;51.494;7.518;2023-02-15T09:06:02;9.00;94.60
45807;DHT22;31507;51.494;7.518;2023-02-15T09:08:27;9.30;93.00
45807;DHT22;31507;51.494;7.518;2023-02-15T09:10:53;9.70;92.50
45807;DHT22;31507;51.494;7.518;2023-02-15T09:13:19;9.90;91.50
45807;DHT22;31507;51.494;7.518;2023-02-15T09:15:45;10.10;90.50
45807;DHT22;31507;51.494;7.518;2023-02-15T09:18:11;10.50;90.60
45807;DHT22;31507;51.494;7.518;2023-02-15T09:20:42;10.70;88.30
45807;DHT22;31507;51.494;7.518;2023-02-15T09:23:08;11.20;90.40
45807;DHT22;31507;51.494;7.518;2023-02-15T09:25:33;11.30;88.10
45807;DHT22;31507;51.494;7.518;2023-02-15T09:27:59;11.50;86.10
45807;DHT22;31507;51.494;7.518;2023-02-15T09:30:24;11.60;84.90
45807;DHT22;31507;51.494;7.518;2023-02-15T09:32:50;11.80;84.00
45807;DHT22;31507;51.494;7.518;2023-02-15T09:35:15;11.90;83.70
45807;DHT22;31507;51.494;7.518;2023-02-15T09:37:41;12.20;82.80
45807;DHT22;31507;51.494;7.518;2023-02-15T09:40:06;12.30;81.90
45807;DHT22;31507;51.494;7.518;2023-02-15T09:42:42;12.30;80.60
45807;DHT22;31507;51.494;7.518;2023-02-15T09:45:13;12.20;83.90
45807;DHT22;31507;51.494;7.518;2023-02-15T09:55:24;12.50;81.30
45807;DHT22;31507;51.494;7.518;2023-02-15T09:58:06;12.50;80.30
45807;DHT22;31507;51.494;7.518;2023-02-15T10:03:37;12.70;81.20
45807;DHT22;31507;51.494;7.518;2023-02-15T10:06:16;12.90;80.50
45807;DHT22;31507;51.494;7.518;2023-02-15T10:27:21;15.60;68.90
45807;DHT22;31507;51.494;7.518;2023-02-15T10:30:00;15.90;66.50
45807;DHT22;31507;51.494;7.518;2023-02-15T10:32:27;16.10;68.50
45807;DHT22;31507;51.494;7.518;2023-02-15T10:52:48;17.70;61.50
45807;DHT22;31507;51.494;7.518;2023-02-15T10:58:17;18.00;61.70
45807;DHT22;31507;51.494;7.518;2023-02-15T11:00:52;18.10;62.20
45807;DHT22;31507;51.494;7.518;2023-02-15T11:08:28;18.20;61.00
45807;DHT22;31507;51.494;7.518;2023-02-15T11:10:57;17.90;61.10
45807;DHT22;31507;51.494;7.518;2023-02-15T11:13:26;17.70;60.70
45807;DHT22;31507;51.494;7.518;2023-02-15T11:20:59;18.30;59.10
45807;DHT22;31507;51.494;7.518;2023-02-15T11:23:26;18.20;59.20
45807;DHT22;31507;51.494;7.518;2023-02-15T11:26:02;17.70;60.10
45807;DHT22;31507;51.494;7.518;2023-02-15T11:31:25;17.80;59.20
45807;DHT22;31507;51.494;7.518;2023-02-15T11:33:52;17.70;58.70
45807;DHT22;31507;51.494;7.518;2023-02-15T11:36:22;17.50;59.10
45807;DHT22;31507;51.494;7.518;2023-02-15T11:38:51;17.50;59.30
45807;DHT22;31507;51.494;7.518;2023-02-15T11:41:19;17.90;60.10
45807;DHT22;31507;51.494;7.518;2023-02-15T11:46:19;18.20;57.50
45807;DHT22;31507;51.494;7.518;2023-02-15T11:48:46;18.60;55.60
45807;DHT22;31507;51.494;7.518;2023-02-15T11:51:13;18.80;56.20
45807;DHT22;31507;51.494;7.518;2023-02-15T11:53:39;18.40;58.80
45807;DHT22;31507;51.494;7.518;2023-02-15T11:56:04;18.10;54.80
45807;DHT22;31507;51.494;7.518;2023-02-15T11:58:33;17.70;56.00
45807;DHT22;31507;51.494;7.518;2023-02-15T12:01:02;17.20;57.50
45807;DHT22;31507;51.494;7.518;2023-02-15T12:03:47;17.10;57.90
45807;DHT22;31507;51.494;7.518;2023-02-15T12:06:24;17.20;56.80
45807;DHT22;31507;51.494;7.518;2023-02-15T12:11:35;17.30;57.10
45807;DHT22;31507;51.494;7.518;2023-02-15T12:14:02;17.40;58.00
45807;DHT22;31507;51.494;7.518;2023-02-15T12:16:28;17.40;56.50
45807;DHT22;31507;51.494;7.518;2023-02-15T12:18:57;17.20;56.10
45807;DHT22;31507;51.494;7.518;2023-02-15T12:21:31;17.20;56.40
45807;DHT22;31507;51.494;7.518;2023-02-15T12:24:01;17.20;56.90
45807;DHT22;31507;51.494;7.518;2023-02-15T12:26:29;17.10;58.10
45807;DHT22;31507;51.494;7.518;2023-02-15T12:28:57;16.90;58.30
45807;DHT22;31507;51.494;7.518;2023-02-15T12:31:49;17.00;58.70
45807;DHT22;31507;51.494;7.518;2023-02-15T12:34:14;16.80;57.50
45807;DHT22;31507;51.494;7.518;2023-02-15T12:36:45;16.60;57.50
45807;DHT22;31507;51.494;7.518;2023-02-15T12:39:16;16.50;58.10
45807;DHT22;31507;51.494;7.518;2023-02-15T12:42:03;16.30;57.00
45807;DHT22;31507;51.494;7.518;2023-02-15T12:44:37;16.40;57.80
45807;DHT22;31507;51.494;7.518;2023-02-15T12:49:29;16.60;58.50
45807;DHT22;31507;51.494;7.518;2023-02-15T12:51:57;16.30;57.40
45807;DHT22;31507;51.494;7.518;2023-02-15T12:56:55;16.10;57.30
45807;DHT22;31507;51.494;7.518;2023-02-15T12:59:22;16.10;58.60
45807;DHT22;31507;51.494;7.518;2023-02-15T13:01:48;16.20;58.60
45807;DHT22;31507;51.494;7.518;2023-02-15T13:04:21;16.30;57.50
45807;DHT22;31507;51.494;7.518;2023-02-15T13:06:49;16.50;58.80
45807;DHT22;31507;51.494;7.518;2023-02-15T13:09:15;16.60;56.10
45807;DHT22;31507;51.494;7.518;2023-02-15T13:11:43;16.60;57.50
45807;DHT22;31507;51.494;7.518;2023-02-15T13:14:19;16.80;57.50
45807;DHT22;31507;51.494;7.518;2023-02-15T13:16:48;16.70;55.40
45807;DHT22;31507;51.494;7.518;2023-02-15T13:19:22;16.50;56.30
45807;DHT22;31507;51.494;7.518;2023-02-15T13:21:51;16.40;56.50
45807;DHT22;31507;51.494;7.518;2023-02-15T13:24:19;16.50;58.00
45807;DHT22;31507;51.494;7.518;2023-02-15T13:26:46;16.50;57.30
45807;DHT22;31507;51.494;7.518;2023-02-15T13:29:22;16.30;56.50
45807;DHT22;31507;51.494;7.518;2023-02-15T13:31:50;16.30;57.20
45807;DHT22;31507;51.494;7.518;2023-02-15T13:34:28;16.20;56.90
45807;DHT22;31507;51.494;7.518;2023-02-15T13:39:51;16.10;56.10
45807;DHT22;31507;51.494;7.518;2023-02-15T13:42:27;16.20;58.40
45807;DHT22;31507;51.494;7.518;2023-02-15T13:52:27;16.20;56.80
45807;DHT22;31507;51.494;7.518;2023-02-15T14:10:12;16.50;55.50
45807;DHT22;31507;51.494;7.518;2023-02-15T14:12:53;16.60;56.20
45807;DHT22;31507;51.494;7.518;2023-02-15T14:15:35;16.60;57.80
45807;DHT22;31507;51.494;7.518;2023-02-15T14:20:44;16.30;57.20
45807;DHT22;31507;51.494;7.518;2023-02-15T14:23:13;16.20;57.80
45807;DHT22;31507;51.494;7.518;2023-02-15T14:25:43;16.10;56.40
45807;DHT22;31507;51.494;7.518;2023-02-15T14:28:12;16.10;57.10
45807;DHT22;31507;51.494;7.518;2023-02-15T14:30:39;16.20;57.60
45807;DHT22;31507;51.494;7.518;2023-02-15T14:33:07;16.20;56.40
45807;DHT22;31507;51.494;7.518;2023-02-15T14:35:32;16.30;57.40
45807;DHT22;31507;51.494;7.518;2023-02-15T14:38:04;16.20;58.10
45807;DHT22;31507;51.494;7.518;2023-02-15T14:40:40;16.00;56.90
45807;DHT22;31507;51.494;7.518;2023-02-15T14:43:43;16.00;57.40
45807;DHT22;31507;51.494;7.518;2023-02-15T14:46:15;15.90;57.30
45807;DHT22;31507;51.494;7.518;2023-02-15T14:48:53;15.90;57.70
45807;DHT22;31507;51.494;7.518;2023-02-15T14:54:04;16.20;56.50
45807;DHT22;31507;51.494;7.518;2023-02-15T14:56:29;16.20;56.60
45807;DHT22;31507;51.494;7.518;2023-02-15T14:58:55;16.00;56.40
45807;DHT22;31507;51.494;7.518;2023-02-15T15:01:40;15.80;56.90
45807;DHT22;31507;51.494;7.518;2023-02-15T15:04:07;15.60;57.90
45807;DHT22;31507;51.494;7.518;2023-02-15T15:06:38;15.40;58.00
45807;DHT22;31507;51.494;7.518;2023-02-15T15:09:18;15.20;59.00
45807;DHT22;31507;51.494;7.518;2023-02-15T15:11:55;15.00;59.50
45807;DHT22;31507;51.494;7.518;2023-02-15T15:16:56;14.50;60.30
45807;DHT22;31507;51.494;7.518;2023-02-15T15:22:12;14.20;61.00
45807;DHT22;31507;51.494;7.518;2023-02-15T15:29:52;13.70;62.40
45807;DHT22;31507;51.494;7.518;2023-02-15T15:32:19;13.60;63.10
45807;DHT22;31507;51.494;7.518;2023-02-15T15:35:26;13.40;63.50
45807;DHT22;31507;51.494;7.518;2023-02-15T15:38:02;13.30;63.40
45807;DHT22;31507;51.494;7.518;2023-02-15T15:40:41;13.20;64.20
45807;DHT22;31507;51.494;7.518;2023-02-15T15:48:40;13.00;64.40
45807;DHT22;31507;51.494;7.518;2023-02-15T15:51:10;12.90;64.60
45807;DHT22;31507;51.494;7.518;2023-02-15T15:53:40;12.70;64.90
45807;DHT22;31507;51.494;7.518;2023-02-15T15:56:09;12.70;65.10
45807;DHT22;31507;51.494;7.518;2023-02-15T15:58:36;12.60;65.90
45807;DHT22;31507;51.494;7.518;2023-02-15T16:01:09;12.50;66.00
45807;DHT22;31507;51.494;7.518;2023-02-15T16:03:36;12.30;66.70
45807;DHT22;31507;51.494;7.518;2023-02-15T16:06:02;12.20;66.40
45807;DHT22;31507;51.494;7.518;2023-02-15T16:08:32;12.10;67.00
45807;DHT22;31507;51.494;7.518;2023-02-15T16:10:58;12.00;67.10
45807;DHT22;31507;51.494;7.518;2023-02-15T16:13:23;11.90;66.60
45807;DHT22;31507;51.494;7.518;2023-02-15T16:15:50;11.80;67.40
45807;DHT22;31507;51.494;7.518;2023-02-15T16:18:18;11.70;67.70
45807;DHT22;31507;51.494;7.518;2023-02-15T16:20:51;11.60;68.10
45807;DHT22;31507;51.494;7.518;2023-02-15T16:26:00;11.20;69.80
45807;DHT22;31507;51.494;7.518;2023-02-15T16:28:27;11.00;70.00
45807;DHT22;31507;51.494;7.518;2023-02-15T16:31:07;10.90;70.00
45807;DHT22;31507;51.494;7.518;2023-02-15T16:33:37;10.80;70.20
45807;DHT22;31507;51.494;7.518;2023-02-15T16:36:03;10.70;70.00
45807;DHT22;31507;51.494;7.518;2023-02-15T16:41:08;10.70;70.70
45807;DHT22;31507;51.494;7.518;2023-02-15T16:43:34;10.60;71.00
45807;DHT22;31507;51.494;7.518;2023-02-15T16:46:04;10.60;71.00
45807;DHT22;31507;51.494;7.518;2023-02-15T16:48:30;10.40;70.90
45807;DHT22;31507;51.494;7.518;2023-02-15T16:50:57;10.30;71.70
45807;DHT22;31507;51.494;7.518;2023-02-15T16:53:26;10.20;72.50
45807;DHT22;31507;51.494;7.518;2023-02-15T16:55:54;10.00;73.00
45807;DHT22;31507;51.494;7.518;2023-02-15T16:58:23;9.80;73.60
45807;DHT22;31507;51.494;7.518;2023-02-15T17:00:51;9.70;74.50
45807;DHT22;31507;51.494;7.518;2023-02-15T17:03:21;9.50;74.50
45807;DHT22;31507;51.494;7.518;2023-02-15T17:05:49;9.50;74.20
45807;DHT22;31507;51.494;7.518;2023-02-15T17:08:24;9.50;74.60
45807;DHT22;31507;51.494;7.518;2023-02-15T17:13:25;9.20;75.70
45807;DHT22;31507;51.494;7.518;2023-02-15T17:18:26;9.00;75.90
45807;DHT22;31507;51.494;7.518;2023-02-15T17:21:09;9.00;77.00
45807;DHT22;31507;51.494;7.518;2023-02-15T17:23:40;9.00;77.30
45807;DHT22;31507;51.494;7.518;2023-02-15T17:26:13;9.00;76.40
45807;DHT22;31507;51.494;7.518;2023-02-15T17:28:48;9.00;77.30
45807;DHT22;31507;51.494;7.518;2023-02-15T17:31:14;8.90;77.80
45807;DHT22;31507;51.494;7.518;2023-02-15T17:33:41;8.80;77.70
45807;DHT22;31507;51.494;7.518;2023-02-15T17:38:34;8.60;78.30
45807;DHT22;31507;51.494;7.518;2023-02-15T17:41:00;8.50;78.60
45807;DHT22;31507;51.494;7.518;2023-02-15T17:43:25;8.40;78.50
45807;DHT22;31507;51.494;7.518;2023-02-15T17:45:51;8.40;79.40
45807;DHT22;31507;51.494;7.518;2023-02-15T17:48:21;8.40;79.60
45807;DHT22;31507;51.494;7.518;2023-02-15T17:50:47;8.50;79.40
45807;DHT22;31507;51.494;7.518;2023-02-15T17:53:13;8.60;80.90
45807;DHT22;31507;51.494;7.518;2023-02-15T17:55:41;8.60;80.20
45807;DHT22;31507;51.494;7.518;2023-02-15T18:00:37;8.80;79.80
45807;DHT22;31507;51.494;7.518;2023-02-15T18:03:22;8.90;79.90
45807;DHT22;31507;51.494;7.518;2023-02-15T18:06:06;8.80;79.50
45807;DHT22;31507;51.494;7.518;2023-02-15T18:08:50;8.90;79.70
45807;DHT22;31507;51.494;7.518;2023-02-15T18:11:35;8.80;79.50
45807;DHT22;31507;51.494;7.518;2023-02-15T18:14:01;8.80;79.70
45807;DHT22;31507;51.494;7.518;2023-02-15T18:16:32;8.80;80.20
45807;DHT22;31507;51.494;7.518;2023-02-15T18:18:58;8.80;80.60
45807;DHT22;31507;51.494;7.518;2023-02-15T18:21:24;8.90;79.80
45807;DHT22;31507;51.494;7.518;2023-02-15T18:23:49;8.90;80.20
45807;DHT22;31507;51.494;7.518;2023-02-15T18:26:18;9.00;80.50
45807;DHT22;31507;51.494;7.518;2023-02-15T18:28:44;9.00;79.90
45807;DHT22;31507;51.494;7.518;2023-02-15T18:31:10;9.10;79.40
45807;DHT22;31507;51.494;7.518;2023-02-15T18:33:37;9.20;79.70
45807;DHT22;31507;51.494;7.518;2023-02-15T18:36:04;9.10;80.00
45807;DHT22;31507;51.494;7.518;2023-02-15T18:38:30;9.00;80.50
45807;DHT22;31507;51.494;7.518;2023-02-15T18:40:56;8.90;80.50
45807;DHT22;31507;51.494;7.518;2023-02-15T18:43:22;8.70;81.50